createdAt,value
2023-03-18T00:00:38.760Z,95916.59
2023-03-18T00:03:25.339Z,95922.22
2023-03-18T00:06:16.817Z,95916.81
2023-03-18T00:09:02.736Z,95910.84
2023-03-18T00:11:48.346Z,95910.75
2023-03-18T00:14:39.598Z,95927.19
2023-03-18T00:17:26.213Z,95907.91
2023-03-18T00:20:13.620Z,95909.75
2023-03-18T00:22:59.111Z,95891.50
2023-03-18T00:25:47.560Z,95900.88
2023-03-18T00:28:33.752Z,95902.97
2023-03-18T00:31:22.401Z,95891.16
2023-03-18T00:34:08.340Z,95891.09
2023-03-18T00:36:57.249Z,95901.47
2023-03-18T00:39:44.356Z,95873.88
2023-03-18T00:42:37.279Z,95879.88
2023-03-18T00:45:24.521Z,95874.56
2023-03-18T00:48:11.272Z,95867.59
2023-03-18T00:50:56.920Z,95868.41
2023-03-18T00:53:45.163Z,95874.31
2023-03-18T00:56:32.395Z,95867.59
2023-03-18T00:59:18.822Z,95861.25
2023-03-18T01:02:07.005Z,95851.53
2023-03-18T01:04:53.342Z,95856.63
2023-03-18T01:07:39.711Z,95857.91
2023-03-18T01:10:27.225Z,95860.31
2023-03-18T01:13:13.014Z,95858.13
2023-03-18T01:15:59.346Z,95853.88
2023-03-18T01:18:45.732Z,95852.97
2023-03-18T01:21:34.792Z,95843.06
2023-03-18T01:24:22.548Z,95835.94
2023-03-18T01:27:09.105Z,95834.78
2023-03-18T01:29:57.764Z,95847.28
2023-03-18T01:32:44.117Z,95844.50
2023-03-18T01:35:32.552Z,95846.03
2023-03-18T01:38:18.641Z,95838.50
2023-03-18T01:41:18.803Z,95821.41
2023-03-18T01:44:13.496Z,95826.19
2023-03-18T01:47:00.592Z,95829.16
2023-03-18T01:49:49.674Z,95819.31
2023-03-18T01:52:37.286Z,95826.84
2023-03-18T01:55:28.375Z,95813.44
2023-03-18T01:59:01.900Z,95822.94
2023-03-18T02:02:01.404Z,95827.56
2023-03-18T02:04:51.344Z,95826.91
2023-03-18T02:07:38.167Z,95811.91
2023-03-18T02:10:29.465Z,95818.84
2023-03-18T02:13:17.213Z,95810.28
2023-03-18T02:16:09.057Z,95813.75
2023-03-18T02:19:00.578Z,95817.69
2023-03-18T02:21:56.793Z,95821.72
2023-03-18T02:25:02.519Z,95816.97
2023-03-18T02:28:00.391Z,95816.72
2023-03-18T02:30:52.924Z,95808.53
2023-03-18T02:33:40.631Z,95806.09
2023-03-18T02:36:35.821Z,95806.09
2023-03-18T02:39:43.135Z,95816.72
2023-03-18T02:42:31.547Z,95818.34
2023-03-18T02:45:35.740Z,95813.53
2023-03-18T02:48:36.733Z,95820.44
2023-03-18T02:51:23.677Z,95821.25
2023-03-18T02:54:15.504Z,95811.91
2023-03-18T02:57:04.808Z,95813.41
2023-03-18T02:59:51.936Z,95816.53
2023-03-18T03:02:38.535Z,95813.28
2023-03-18T03:05:24.545Z,95808.94
2023-03-18T03:08:11.311Z,95816.91
2023-03-18T03:11:03.390Z,95815.28
2023-03-18T03:13:52.078Z,95817.94
2023-03-18T03:16:38.677Z,95820.00
2023-03-18T03:19:26.441Z,95814.94
2023-03-18T03:22:12.281Z,95815.19
2023-03-18T03:24:58.712Z,95815.66
2023-03-18T03:27:44.753Z,95813.44
2023-03-18T03:30:31.058Z,95806.53
2023-03-18T03:33:16.937Z,95812.88
2023-03-18T03:36:02.913Z,95808.72
2023-03-18T03:38:50.585Z,95807.81
2023-03-18T03:41:36.442Z,95810.81
2023-03-18T03:44:22.275Z,95808.06
2023-03-18T03:47:08.559Z,95810.13
2023-03-18T03:49:54.365Z,95809.69
2023-03-18T03:52:40.322Z,95812.88
2023-03-18T03:55:26.355Z,95801.72
2023-03-18T03:58:14.218Z,95802.25
2023-03-18T04:01:01.922Z,95802.25
2023-03-18T04:03:48.601Z,95800.09
2023-03-18T04:06:35.799Z,95791.19
2023-03-18T04:09:22.113Z,95799.75
2023-03-18T04:12:08.652Z,95794.88
2023-03-18T04:14:54.755Z,95789.25
2023-03-18T04:17:42.157Z,95794.56
2023-03-18T04:20:27.887Z,95779.53
2023-03-18T04:23:14.285Z,95790.16
2023-03-18T04:26:00.676Z,95791.66
2023-03-18T04:28:46.997Z,95789.47
2023-03-18T04:31:35.149Z,95788.66
2023-03-18T04:34:22.350Z,95782.78
2023-03-18T04:37:09.259Z,95788.66
2023-03-18T04:40:00.547Z,95797.53
2023-03-18T04:42:47.916Z,95797.31
2023-03-18T04:45:35.906Z,95802.75
2023-03-18T04:48:23.477Z,95799.63
2023-03-18T04:51:12.670Z,95795.09
2023-03-18T04:53:59.273Z,95794.22
2023-03-18T04:56:49.055Z,95792.59
2023-03-18T04:59:35.056Z,95790.97
2023-03-18T05:02:24.705Z,95792.59
2023-03-18T05:05:14.616Z,95789.81
2023-03-18T05:08:05.688Z,95807.56
2023-03-18T05:10:52.530Z,95797.44
2023-03-18T05:13:39.125Z,95800.41
2023-03-18T05:16:26.310Z,95796.50
2023-03-18T05:19:13.108Z,95802.84
2023-03-18T05:22:06.683Z,95804.09
2023-03-18T05:24:54.317Z,95797.44
2023-03-18T05:27:43.059Z,95802.25
2023-03-18T05:30:39.392Z,95795.25
2023-03-18T05:33:28.680Z,95806.78
2023-03-18T05:36:15.667Z,95814.41
2023-03-18T05:39:16.909Z,95815.53
2023-03-18T05:42:04.794Z,95821.56
2023-03-18T05:44:50.645Z,95821.41
2023-03-18T05:47:40.214Z,95821.78
2023-03-18T05:50:33.885Z,95816.31
2023-03-18T05:53:23.685Z,95815.94
2023-03-18T05:56:19.326Z,95817.91
2023-03-18T05:59:10.191Z,95819.88
2023-03-18T06:02:04.399Z,95817.31
2023-03-18T06:04:50.900Z,95827.56
2023-03-18T06:07:45.813Z,95821.78
2023-03-18T06:10:36.188Z,95820.75
2023-03-18T06:13:22.643Z,95822.94
2023-03-18T06:16:08.881Z,95806.06
2023-03-18T06:18:56.529Z,95817.72
2023-03-18T06:21:43.372Z,95824.75
2023-03-18T06:24:29.154Z,95824.25
2023-03-18T06:27:16.853Z,95812.94
2023-03-18T06:30:06.442Z,95817.03
2023-03-18T06:32:55.054Z,95812.06
2023-03-18T06:35:44.882Z,95812.41
2023-03-18T06:38:31.598Z,95810.88
2023-03-18T06:41:22.233Z,95815.03
2023-03-18T06:44:20.176Z,95823.88
2023-03-18T06:47:06.206Z,95822.94
2023-03-18T06:50:01.694Z,95821.91
2023-03-18T06:52:54.359Z,95828.91
2023-03-18T06:55:48.670Z,95833.53
2023-03-18T06:58:38.560Z,95827.47
2023-03-18T07:01:30.147Z,95814.41
2023-03-18T07:04:17.257Z,95821.75
2023-03-18T07:07:05.906Z,95830.41
2023-03-18T07:09:52.734Z,95835.56
2023-03-18T07:12:40.332Z,95825.22
2023-03-18T07:15:26.747Z,95823.69
2023-03-18T07:18:15.947Z,95819.25
2023-03-18T07:21:05.579Z,95827.34
2023-03-18T07:23:52.404Z,95821.59
2023-03-18T07:26:38.538Z,95827.31
2023-03-18T07:29:28.737Z,95823.94
2023-03-18T07:32:14.903Z,95820.50
2023-03-18T07:35:03.067Z,95829.78
2023-03-18T07:37:48.764Z,95834.69
2023-03-18T07:40:34.676Z,95824.59
2023-03-18T07:43:20.416Z,95825.78
2023-03-18T07:46:07.405Z,95826.41
2023-03-18T07:48:54.394Z,95823.31
2023-03-18T07:51:40.793Z,95829.25
2023-03-18T07:54:26.571Z,95824.06
2023-03-18T07:57:13.082Z,95822.56
2023-03-18T07:59:58.939Z,95835.53
2023-03-18T08:02:44.736Z,95841.22
2023-03-18T08:05:32.054Z,95834.41
2023-03-18T08:08:18.602Z,95842.31
2023-03-18T08:11:05.040Z,95841.84
2023-03-18T08:13:51.070Z,95839.31
2023-03-18T08:16:36.687Z,95835.38
2023-03-18T08:19:22.611Z,95836.56
2023-03-18T08:22:08.393Z,95828.38
2023-03-18T08:25:39.774Z,95829.56
2023-03-18T08:28:26.116Z,95828.59
2023-03-18T08:31:12.164Z,95835.13
2023-03-18T08:33:59.617Z,95836.53
2023-03-18T08:36:45.548Z,95827.25
2023-03-18T08:39:32.243Z,95834.78
2023-03-18T08:42:19.240Z,95834.56
2023-03-18T08:45:05.483Z,95835.47
2023-03-18T08:47:51.316Z,95835.50
2023-03-18T08:50:38.099Z,95834.75
2023-03-18T08:54:13.529Z,95841.47
2023-03-18T08:57:00.646Z,95831.06
2023-03-18T08:59:46.782Z,95828.66
2023-03-18T09:04:15.103Z,95830.00
2023-03-18T09:10:19.776Z,95823.56
2023-03-18T09:13:05.831Z,95818.44
2023-03-18T09:15:51.995Z,95825.91
2023-03-18T09:19:55.168Z,95814.06
2023-03-18T09:22:42.987Z,95815.88
2023-03-18T09:25:31.335Z,95801.88
2023-03-18T09:28:17.865Z,95793.72
2023-03-18T09:31:04.155Z,95806.75
2023-03-18T09:33:49.948Z,95798.38
2023-03-18T09:36:35.980Z,95797.50
2023-03-18T09:40:28.771Z,95801.09
2023-03-18T09:44:29.523Z,95796.88
2023-03-18T09:47:16.656Z,95791.56
2023-03-18T09:54:45.263Z,95800.00
2023-03-18T09:57:37.844Z,95796.78
2023-03-18T10:00:54.098Z,95785.78
2023-03-18T10:17:31.577Z,95769.25
2023-03-18T10:30:26.532Z,95755.44
2023-03-18T10:38:17.974Z,95754.63
2023-03-18T10:42:39.840Z,95751.56
2023-03-18T10:47:09.922Z,95751.63
2023-03-18T10:51:41.020Z,95739.50
2023-03-18T10:56:11.097Z,95735.81
2023-03-18T11:00:05.201Z,95737.69
2023-03-18T11:04:27.913Z,95731.88
2023-03-18T11:07:19.022Z,95739.16
2023-03-18T11:15:41.965Z,95718.97
2023-03-18T11:19:54.032Z,95714.72
2023-03-18T11:22:45.145Z,95717.19
2023-03-18T11:25:32.540Z,95709.25
2023-03-18T11:28:27.099Z,95710.91
2023-03-18T11:31:18.372Z,95702.19
2023-03-18T11:34:08.791Z,95701.28
2023-03-18T11:37:05.468Z,95695.44
2023-03-18T11:40:59.046Z,95685.34
2023-03-18T11:43:56.962Z,95690.44
2023-03-18T11:46:47.075Z,95681.88
2023-03-18T11:49:33.339Z,95672.22
2023-03-18T11:52:38.975Z,95674.59
2023-03-18T11:55:32.082Z,95661.69
2023-03-18T11:59:07.899Z,95672.72
2023-03-18T12:02:07.915Z,95668.78
2023-03-18T12:05:48.672Z,95658.38
2023-03-18T12:09:09.121Z,95647.09
2023-03-18T12:12:27.695Z,95652.94
2023-03-18T12:15:18.516Z,95658.88
2023-03-18T12:18:54.100Z,95653.31
2023-03-18T12:22:07.398Z,95649.44
2023-03-18T12:25:43.433Z,95647.91
2023-03-18T12:29:36.092Z,95650.31
2023-03-18T12:32:40.911Z,95644.78
2023-03-18T12:35:27.070Z,95643.31
2023-03-18T12:38:50.648Z,95640.88
2023-03-18T12:42:10.242Z,95642.47
2023-03-18T12:45:25.759Z,95649.97
2023-03-18T12:48:15.901Z,95642.47
2023-03-18T12:51:12.434Z,95654.31
2023-03-18T12:54:32.483Z,95647.25
2023-03-18T13:03:31.098Z,95648.94
2023-03-18T13:11:27.015Z,95641.13
2023-03-18T13:14:46.086Z,95639.16
2023-03-18T13:17:32.894Z,95618.22
2023-03-18T13:20:25.438Z,95628.91
2023-03-18T13:24:20.178Z,95630.50
2023-03-18T13:32:10.892Z,95604.78
2023-03-18T13:40:03.932Z,95607.84
2023-03-18T13:42:50.710Z,95613.66
2023-03-18T13:45:42.927Z,95615.56
2023-03-18T13:48:32.024Z,95614.28
2023-03-18T13:51:25.278Z,95594.69
2023-03-18T13:54:20.864Z,95599.09
2023-03-18T13:57:18.573Z,95602.59
2023-03-18T14:00:36.294Z,95603.31
2023-03-18T14:03:30.016Z,95594.84
2023-03-18T14:06:34.969Z,95599.03
2023-03-18T14:09:46.431Z,95593.56
2023-03-18T14:12:35.041Z,95598.19
2023-03-18T14:15:29.949Z,95597.19
2023-03-18T14:18:29.927Z,95599.97
2023-03-18T14:21:44.336Z,95592.31
2023-03-18T14:24:38.533Z,95592.38
2023-03-18T14:27:30.416Z,95589.50
2023-03-18T14:30:32.081Z,95590.75
2023-03-18T14:33:18.347Z,95591.66
2023-03-18T14:37:01.021Z,95596.41
2023-03-18T14:41:10.993Z,95598.09
2023-03-18T14:44:25.486Z,95596.25
2023-03-18T14:47:56.251Z,95594.44
2023-03-18T14:50:45.433Z,95583.84
2023-03-18T15:07:19.082Z,95582.41
2023-03-18T15:14:53.501Z,95599.63
2023-03-18T15:17:52.550Z,95592.69
2023-03-18T15:25:21.432Z,95593.41
2023-03-18T15:28:07.307Z,95602.25
2023-03-18T15:30:56.435Z,95597.16
2023-03-18T15:33:44.009Z,95597.81
2023-03-18T15:36:30.141Z,95596.94
2023-03-18T15:39:37.747Z,95608.06
2023-03-18T15:42:24.015Z,95610.53
2023-03-18T15:45:17.451Z,95610.44
2023-03-18T15:48:08.406Z,95614.66
2023-03-18T15:50:56.622Z,95618.19
2023-03-18T15:53:44.867Z,95605.47
2023-03-18T15:56:33.063Z,95619.50
2023-03-18T15:59:28.480Z,95615.72
2023-03-18T16:02:16.531Z,95634.53
2023-03-18T16:05:20.333Z,95630.56
2023-03-18T16:08:11.401Z,95640.94
2023-03-18T16:11:02.000Z,95637.06
2023-03-18T16:13:48.355Z,95651.41
2023-03-18T16:16:36.394Z,95662.56
2023-03-18T16:19:25.168Z,95667.16
2023-03-18T16:22:12.588Z,95662.78
2023-03-18T16:24:58.425Z,95668.69
2023-03-18T16:27:46.671Z,95676.78
2023-03-18T16:30:34.140Z,95681.81
2023-03-18T16:33:20.952Z,95688.28
2023-03-18T16:36:07.108Z,95689.81
2023-03-18T16:38:53.118Z,95698.66
2023-03-18T16:41:39.116Z,95693.94
2023-03-18T16:44:26.474Z,95698.50
2023-03-18T16:47:23.418Z,95712.28
2023-03-18T16:50:22.511Z,95727.13
2023-03-18T16:53:27.221Z,95714.56
2023-03-18T16:56:16.902Z,95727.78
2023-03-18T16:59:02.905Z,95721.00
2023-03-18T17:01:49.425Z,95723.34
2023-03-18T17:04:35.623Z,95737.63
2023-03-18T17:07:22.401Z,95737.44
2023-03-18T17:10:10.379Z,95737.63
2023-03-18T17:12:59.618Z,95742.81
2023-03-18T17:15:51.946Z,95756.78
2023-03-18T17:18:38.478Z,95755.97
2023-03-18T17:21:28.681Z,95769.84
2023-03-18T17:24:14.636Z,95768.91
2023-03-18T17:27:00.336Z,95779.31
2023-03-18T17:29:46.352Z,95773.47
2023-03-18T17:32:32.502Z,95779.03
2023-03-18T17:35:22.057Z,95777.50
2023-03-18T17:38:10.124Z,95766.59
2023-03-18T17:40:57.564Z,95780.94
2023-03-18T17:43:44.207Z,95789.16
2023-03-18T17:46:33.446Z,95784.94
2023-03-18T17:49:23.258Z,95794.19
2023-03-18T17:52:09.984Z,95784.03
2023-03-18T17:54:56.299Z,95785.09
2023-03-18T17:57:42.393Z,95795.13
2023-03-18T18:00:28.292Z,95789.88
2023-03-18T18:03:29.724Z,95794.81
2023-03-18T18:06:18.924Z,95799.72
2023-03-18T18:09:05.955Z,95810.59
2023-03-18T18:11:52.262Z,95810.38
2023-03-18T18:14:38.393Z,95806.94
2023-03-18T18:17:24.344Z,95809.66
2023-03-18T18:20:18.854Z,95811.06
2023-03-18T18:23:05.090Z,95819.16
2023-03-18T18:25:51.466Z,95817.81
2023-03-18T18:28:39.754Z,95822.38
2023-03-18T18:31:25.906Z,95821.59
2023-03-18T18:34:12.394Z,95822.66
2023-03-18T18:36:58.880Z,95817.84
2023-03-18T18:39:44.577Z,95829.69
2023-03-18T18:42:30.853Z,95834.06
2023-03-18T18:45:19.328Z,95831.09
2023-03-18T18:48:17.770Z,95837.31
2023-03-18T18:51:04.454Z,95842.16
2023-03-18T18:53:52.653Z,95836.84
2023-03-18T18:56:39.168Z,95842.78
2023-03-18T18:59:28.853Z,95857.88
2023-03-18T19:02:33.874Z,95855.25
2023-03-18T19:05:21.744Z,95842.91
2023-03-18T19:08:25.267Z,95849.88
2023-03-18T19:11:11.683Z,95851.56
2023-03-18T19:14:24.870Z,95844.59
2023-03-18T19:17:17.419Z,95857.50
2023-03-18T19:20:23.163Z,95862.34
2023-03-18T19:23:14.766Z,95857.50
2023-03-18T19:26:02.567Z,95867.72
2023-03-18T19:28:57.745Z,95869.34
2023-03-18T19:31:44.862Z,95872.03
2023-03-18T19:34:34.466Z,95875.03
2023-03-18T19:37:34.166Z,95878.28
2023-03-18T19:40:21.801Z,95871.00
2023-03-18T19:43:18.949Z,95879.09
2023-03-18T19:46:05.265Z,95878.34
2023-03-18T19:48:51.587Z,95876.53
2023-03-18T19:51:37.794Z,95878.16
2023-03-18T19:54:32.556Z,95876.00
2023-03-18T19:57:30.051Z,95870.69
2023-03-18T20:00:23.645Z,95879.00
2023-03-18T20:03:14.890Z,95875.03
2023-03-18T20:06:00.952Z,95877.16
2023-03-18T20:08:47.272Z,95880.97
2023-03-18T20:11:33.556Z,95879.91
2023-03-18T20:14:26.243Z,95880.44
2023-03-18T20:17:27.331Z,95881.28
2023-03-18T20:20:16.942Z,95879.72
2023-03-18T20:23:07.155Z,95891.31
2023-03-18T20:25:53.871Z,95899.91
2023-03-18T20:28:42.523Z,95889.47
2023-03-18T20:31:30.646Z,95899.94
2023-03-18T20:34:16.828Z,95897.25
2023-03-18T20:37:04.070Z,95903.19
2023-03-18T20:39:50.859Z,95903.19
2023-03-18T20:42:36.954Z,95895.69
2023-03-18T20:45:24.360Z,95910.19
2023-03-18T20:48:10.309Z,95905.88
2023-03-18T20:50:56.382Z,95907.50
2023-03-18T20:53:43.362Z,95912.88
2023-03-18T20:56:32.570Z,95926.28
2023-03-18T20:59:18.765Z,95930.06
2023-03-18T21:02:20.832Z,95937.56
2023-03-18T21:05:06.943Z,95912.09
2023-03-18T21:07:53.159Z,95928.16
2023-03-18T21:10:39.541Z,95923.88
2023-03-18T21:13:25.326Z,95924.16
2023-03-18T21:16:14.957Z,95921.97
2023-03-18T21:19:03.257Z,95922.53
2023-03-18T21:21:49.575Z,95915.00
2023-03-18T21:24:35.893Z,95920.88
2023-03-18T21:27:23.718Z,95923.56
2023-03-18T21:30:10.815Z,95922.75
2023-03-18T21:32:56.527Z,95921.94
2023-03-18T21:35:43.187Z,95929.47
2023-03-18T21:38:35.180Z,95923.56
2023-03-18T21:41:28.161Z,95930.25
2023-03-18T21:44:15.313Z,95924.63
2023-03-18T21:47:01.297Z,95926.72
2023-03-18T21:49:47.653Z,95930.47
2023-03-18T21:52:36.249Z,95928.84
2023-03-18T21:55:22.762Z,95925.06
2023-03-18T21:58:17.016Z,95917.44
2023-03-18T22:01:02.480Z,95935.63
2023-03-18T22:03:53.668Z,95925.34
2023-03-18T22:06:40.004Z,95938.44
2023-03-18T22:09:28.345Z,95926.31
2023-03-18T22:12:28.556Z,95935.34
2023-03-18T22:15:23.447Z,95936.66
2023-03-18T22:18:09.278Z,95947.66
2023-03-18T22:20:56.233Z,95940.63
2023-03-18T22:23:43.065Z,95926.69
2023-03-18T22:26:29.211Z,95935.72
2023-03-18T22:29:15.036Z,95929.28
2023-03-18T22:32:00.938Z,95930.09
2023-03-18T22:34:46.962Z,95937.84
2023-03-18T22:37:32.682Z,95934.63
2023-03-18T22:40:27.175Z,95933.00
2023-03-18T22:43:25.292Z,95938.28
2023-03-18T22:46:11.885Z,95944.13
2023-03-18T22:48:58.533Z,95948.91
2023-03-18T22:51:44.962Z,95942.94
2023-03-18T22:54:31.088Z,95946.66
2023-03-18T22:57:19.566Z,95947.47
2023-03-18T23:00:33.810Z,95951.72
2023-03-18T23:03:26.203Z,95955.97
2023-03-18T23:06:17.049Z,95951.91
2023-03-18T23:09:02.879Z,95949.72
2023-03-18T23:11:48.773Z,95944.84
2023-03-18T23:14:34.553Z,95939.22
2023-03-18T23:17:24.516Z,95951.22
2023-03-18T23:20:11.462Z,95954.06
2023-03-18T23:22:57.913Z,95950.81
2023-03-18T23:25:45.699Z,95958.78
2023-03-18T23:28:40.949Z,95961.19
2023-03-18T23:31:30.048Z,95956.34
2023-03-18T23:34:18.355Z,95964.63
2023-03-18T23:37:04.320Z,95961.59
2023-03-18T23:39:50.121Z,95963.69
2023-03-18T23:42:36.145Z,95976.97
2023-03-18T23:45:24.760Z,95973.38
2023-03-18T23:48:10.474Z,95972.44
2023-03-18T23:50:56.214Z,95979.66
2023-03-18T23:53:42.090Z,95980.16
2023-03-18T23:56:27.839Z,95978.28
2023-03-18T23:59:13.527Z,95963.75
